sensor_id;sensor_type;location;lat;lon;timestamp;temperature;humidity
7307;DHT22;3694;48.732;9.248;2022-07-06T00:02:22;16.70;58.30
7307;DHT22;3694;48.732;9.248;2022-07-06T00:04:47;16.70;58.50
7307;DHT22;3694;48.732;9.248;2022-07-06T00:07:13;16.80;58.60
7307;DHT22;3694;48.732;9.248;2022-07-06T00:09:40;16.80;58.30
7307;DHT22;3694;48.732;9.248;2022-07-06T00:12:06;16.80;58.60
7307;DHT22;3694;48.732;9.248;2022-07-06T00:14:32;16.90;58.40
7307;DHT22;3694;48.732;9.248;2022-07-06T00:16:57;16.90;58.30
7307;DHT22;3694;48.732;9.248;2022-07-06T00:19:23;16.90;58.00
7307;DHT22;3694;48.732;9.248;2022-07-06T00:21:48;16.80;57.90
7307;DHT22;3694;48.732;9.248;2022-07-06T00:24:14;16.90;58.10
7307;DHT22;3694;48.732;9.248;2022-07-06T00:26:39;16.90;58.30
7307;DHT22;3694;48.732;9.248;2022-07-06T00:29:05;16.90;58.30
7307;DHT22;3694;48.732;9.248;2022-07-06T00:31:30;16.90;58.40
7307;DHT22;3694;48.732;9.248;2022-07-06T00:33:56;16.90;58.50
7307;DHT22;3694;48.732;9.248;2022-07-06T00:36:21;16.80;58.60
7307;DHT22;3694;48.732;9.248;2022-07-06T00:38:47;16.80;58.60
7307;DHT22;3694;48.732;9.248;2022-07-06T00:41:13;16.80;58.60
7307;DHT22;3694;48.732;9.248;2022-07-06T00:43:52;16.80;58.90
7307;DHT22;3694;48.732;9.248;2022-07-06T00:46:18;16.70;58.80
7307;DHT22;3694;48.732;9.248;2022-07-06T00:48:44;16.60;59.00
7307;DHT22;3694;48.732;9.248;2022-07-06T00:51:11;16.60;59.10
7307;DHT22;3694;48.732;9.248;2022-07-06T00:53:37;16.60;59.30
7307;DHT22;3694;48.732;9.248;2022-07-06T00:56:03;16.50;59.40
7307;DHT22;3694;48.732;9.248;2022-07-06T00:58:28;16.50;59.70
7307;DHT22;3694;48.732;9.248;2022-07-06T01:00:54;16.40;59.80
7307;DHT22;3694;48.732;9.248;2022-07-06T01:03:20;16.40;60.00
7307;DHT22;3694;48.732;9.248;2022-07-06T01:05:45;16.40;60.00
7307;DHT22;3694;48.732;9.248;2022-07-06T01:08:12;16.30;60.00
7307;DHT22;3694;48.732;9.248;2022-07-06T01:10:37;16.30;60.60
7307;DHT22;3694;48.732;9.248;2022-07-06T01:13:03;16.20;60.50
7307;DHT22;3694;48.732;9.248;2022-07-06T01:15:28;16.20;60.70
7307;DHT22;3694;48.732;9.248;2022-07-06T01:17:54;16.20;61.00
7307;DHT22;3694;48.732;9.248;2022-07-06T01:20:22;16.10;61.10
7307;DHT22;3694;48.732;9.248;2022-07-06T01:22:49;16.10;60.90
7307;DHT22;3694;48.732;9.248;2022-07-06T01:25:15;16.10;61.20
7307;DHT22;3694;48.732;9.248;2022-07-06T01:27:42;16.00;61.30
7307;DHT22;3694;48.732;9.248;2022-07-06T01:30:14;16.00;61.30
7307;DHT22;3694;48.732;9.248;2022-07-06T01:32:40;16.10;61.20
7307;DHT22;3694;48.732;9.248;2022-07-06T01:35:08;16.10;61.30
7307;DHT22;3694;48.732;9.248;2022-07-06T01:37:35;16.10;61.10
7307;DHT22;3694;48.732;9.248;2022-07-06T01:40:02;15.90;61.30
7307;DHT22;3694;48.732;9.248;2022-07-06T01:42:28;16.00;61.60
7307;DHT22;3694;48.732;9.248;2022-07-06T01:44:54;15.90;62.00
7307;DHT22;3694;48.732;9.248;2022-07-06T01:47:20;15.70;62.30
7307;DHT22;3694;48.732;9.248;2022-07-06T01:49:45;15.60;63.30
7307;DHT22;3694;48.732;9.248;2022-07-06T01:52:11;15.50;63.10
7307;DHT22;3694;48.732;9.248;2022-07-06T01:54:37;15.40;63.50
7307;DHT22;3694;48.732;9.248;2022-07-06T01:57:03;15.30;64.50
7307;DHT22;3694;48.732;9.248;2022-07-06T01:59:28;15.10;65.90
7307;DHT22;3694;48.732;9.248;2022-07-06T02:01:54;15.00;66.10
7307;DHT22;3694;48.732;9.248;2022-07-06T02:04:19;14.90;67.00
7307;DHT22;3694;48.732;9.248;2022-07-06T02:06:45;14.70;67.80
7307;DHT22;3694;48.732;9.248;2022-07-06T02:09:11;14.40;69.30
7307;DHT22;3694;48.732;9.248;2022-07-06T02:11:36;14.20;70.50
7307;DHT22;3694;48.732;9.248;2022-07-06T02:14:02;14.00;72.80
7307;DHT22;3694;48.732;9.248;2022-07-06T02:16:27;13.90;73.70
7307;DHT22;3694;48.732;9.248;2022-07-06T02:18:53;13.80;76.70
7307;DHT22;3694;48.732;9.248;2022-07-06T02:21:18;13.60;78.10
7307;DHT22;3694;48.732;9.248;2022-07-06T02:23:44;13.60;80.50
7307;DHT22;3694;48.732;9.248;2022-07-06T02:26:09;13.60;82.10
7307;DHT22;3694;48.732;9.248;2022-07-06T02:28:35;13.60;84.30
7307;DHT22;3694;48.732;9.248;2022-07-06T02:31:00;13.40;87.10
7307;DHT22;3694;48.732;9.248;2022-07-06T02:33:26;13.50;86.90
7307;DHT22;3694;48.732;9.248;2022-07-06T02:35:51;13.50;87.30
7307;DHT22;3694;48.732;9.248;2022-07-06T02:38:17;13.60;87.20
7307;DHT22;3694;48.732;9.248;2022-07-06T02:40:42;13.70;86.90
7307;DHT22;3694;48.732;9.248;2022-07-06T02:43:08;13.80;87.50
7307;DHT22;3694;48.732;9.248;2022-07-06T02:45:33;13.90;86.80
7307;DHT22;3694;48.732;9.248;2022-07-06T02:47:59;13.90;86.40
7307;DHT22;3694;48.732;9.248;2022-07-06T02:50:25;14.00;86.50
7307;DHT22;3694;48.732;9.248;2022-07-06T02:52:50;13.90;86.40
7307;DHT22;3694;48.732;9.248;2022-07-06T02:55:16;14.00;86.80
7307;DHT22;3694;48.732;9.248;2022-07-06T02:57:42;14.10;86.30
7307;DHT22;3694;48.732;9.248;2022-07-06T03:00:08;14.10;86.70
7307;DHT22;3694;48.732;9.248;2022-07-06T03:02:35;14.10;86.60
7307;DHT22;3694;48.732;9.248;2022-07-06T03:05:01;14.00;87.30
7307;DHT22;3694;48.732;9.248;2022-07-06T03:07:27;14.10;88.10
7307;DHT22;3694;48.732;9.248;2022-07-06T03:09:52;13.70;87.90
7307;DHT22;3694;48.732;9.248;2022-07-06T03:12:18;13.90;88.40
7307;DHT22;3694;48.732;9.248;2022-07-06T03:14:43;14.00;88.60
7307;DHT22;3694;48.732;9.248;2022-07-06T03:17:09;14.00;88.80
7307;DHT22;3694;48.732;9.248;2022-07-06T03:19:34;13.90;89.50
7307;DHT22;3694;48.732;9.248;2022-07-06T03:22:00;13.90;89.00
7307;DHT22;3694;48.732;9.248;2022-07-06T03:24:26;13.90;89.60
7307;DHT22;3694;48.732;9.248;2022-07-06T03:26:51;13.90;89.60
7307;DHT22;3694;48.732;9.248;2022-07-06T03:29:17;14.00;90.10
7307;DHT22;3694;48.732;9.248;2022-07-06T03:31:42;14.00;89.50
7307;DHT22;3694;48.732;9.248;2022-07-06T03:34:08;14.10;90.00
7307;DHT22;3694;48.732;9.248;2022-07-06T03:36:34;14.10;89.60
7307;DHT22;3694;48.732;9.248;2022-07-06T03:38:59;14.20;89.40
7307;DHT22;3694;48.732;9.248;2022-07-06T03:41:25;14.00;90.00
7307;DHT22;3694;48.732;9.248;2022-07-06T03:43:50;14.00;89.90
7307;DHT22;3694;48.732;9.248;2022-07-06T03:46:16;14.00;90.10
7307;DHT22;3694;48.732;9.248;2022-07-06T03:48:41;14.10;90.10
7307;DHT22;3694;48.732;9.248;2022-07-06T03:51:07;14.10;90.10
7307;DHT22;3694;48.732;9.248;2022-07-06T03:53:32;14.20;90.00
7307;DHT22;3694;48.732;9.248;2022-07-06T03:55:58;14.20;90.10
7307;DHT22;3694;48.732;9.248;2022-07-06T03:58:42;14.20;90.10
7307;DHT22;3694;48.732;9.248;2022-07-06T04:01:08;14.20;90.20
7307;DHT22;3694;48.732;9.248;2022-07-06T04:03:34;14.20;90.20
7307;DHT22;3694;48.732;9.248;2022-07-06T04:05:59;14.20;90.20
7307;DHT22;3694;48.732;9.248;2022-07-06T04:08:25;14.20;90.80
7307;DHT22;3694;48.732;9.248;2022-07-06T04:10:50;14.20;90.80
7307;DHT22;3694;48.732;9.248;2022-07-06T04:13:16;14.20;90.70
7307;DHT22;3694;48.732;9.248;2022-07-06T04:15:41;14.20;90.80
7307;DHT22;3694;48.732;9.248;2022-07-06T04:18:07;14.30;90.90
7307;DHT22;3694;48.732;9.248;2022-07-06T04:20:32;14.30;91.30
7307;DHT22;3694;48.732;9.248;2022-07-06T04:22:58;14.30;91.70
7307;DHT22;3694;48.732;9.248;2022-07-06T04:25:24;14.40;91.60
7307;DHT22;3694;48.732;9.248;2022-07-06T04:27:49;14.30;92.40
7307;DHT22;3694;48.732;9.248;2022-07-06T04:30:15;14.30;92.00
7307;DHT22;3694;48.732;9.248;2022-07-06T04:32:41;14.40;91.70
7307;DHT22;3694;48.732;9.248;2022-07-06T04:35:06;14.50;92.00
7307;DHT22;3694;48.732;9.248;2022-07-06T04:37:32;14.70;91.30
7307;DHT22;3694;48.732;9.248;2022-07-06T04:39:58;14.80;91.30
7307;DHT22;3694;48.732;9.248;2022-07-06T04:42:24;14.90;90.80
7307;DHT22;3694;48.732;9.248;2022-07-06T04:44:50;15.00;91.30
7307;DHT22;3694;48.732;9.248;2022-07-06T04:47:17;15.10;90.90
7307;DHT22;3694;48.732;9.248;2022-07-06T04:49:42;15.20;90.70
7307;DHT22;3694;48.732;9.248;2022-07-06T04:52:08;15.20;90.60
7307;DHT22;3694;48.732;9.248;2022-07-06T04:54:34;15.30;90.90
7307;DHT22;3694;48.732;9.248;2022-07-06T04:56:59;15.30;90.50
7307;DHT22;3694;48.732;9.248;2022-07-06T04:59:25;15.50;90.90
7307;DHT22;3694;48.732;9.248;2022-07-06T05:01:50;15.60;90.20
7307;DHT22;3694;48.732;9.248;2022-07-06T05:04:16;15.70;90.50
7307;DHT22;3694;48.732;9.248;2022-07-06T05:06:45;15.90;90.30
7307;DHT22;3694;48.732;9.248;2022-07-06T05:09:11;16.30;89.80
7307;DHT22;3694;48.732;9.248;2022-07-06T05:11:37;17.00;87.30
7307;DHT22;3694;48.732;9.248;2022-07-06T05:14:03;17.50;84.70
7307;DHT22;3694;48.732;9.248;2022-07-06T05:16:28;18.50;80.60
7307;DHT22;3694;48.732;9.248;2022-07-06T05:18:54;19.20;76.50
7307;DHT22;3694;48.732;9.248;2022-07-06T05:21:19;19.80;74.00
7307;DHT22;3694;48.732;9.248;2022-07-06T05:23:45;20.20;72.50
7307;DHT22;3694;48.732;9.248;2022-07-06T05:26:10;20.60;70.30
7307;DHT22;3694;48.732;9.248;2022-07-06T05:28:36;21.30;67.20
7307;DHT22;3694;48.732;9.248;2022-07-06T05:31:01;21.90;66.50
7307;DHT22;3694;48.732;9.248;2022-07-06T05:33:27;22.50;65.90
7307;DHT22;3694;48.732;9.248;2022-07-06T05:35:53;22.80;63.10
7307;DHT22;3694;48.732;9.248;2022-07-06T05:38:19;23.50;62.40
7307;DHT22;3694;48.732;9.248;2022-07-06T05:40:44;23.60;61.40
7307;DHT22;3694;48.732;9.248;2022-07-06T05:43:10;23.80;61.50
7307;DHT22;3694;48.732;9.248;2022-07-06T05:45:35;24.20;60.10
7307;DHT22;3694;48.732;9.248;2022-07-06T05:48:01;24.30;58.60
7307;DHT22;3694;48.732;9.248;2022-07-06T05:50:45;24.90;57.80
7307;DHT22;3694;48.732;9.248;2022-07-06T11:50:42;24.00;56.90
7307;DHT22;3694;48.732;9.248;2022-07-06T11:53:08;24.10;56.20
7307;DHT22;3694;48.732;9.248;2022-07-06T11:55:34;24.50;57.10
7307;DHT22;3694;48.732;9.248;2022-07-06T11:58:00;24.60;56.30
7307;DHT22;3694;48.732;9.248;2022-07-06T12:00:26;24.70;55.80
7307;DHT22;3694;48.732;9.248;2022-07-06T12:03:00;24.40;56.20
7307;DHT22;3694;48.732;9.248;2022-07-06T12:05:30;24.50;57.60
7307;DHT22;3694;48.732;9.248;2022-07-06T12:08:08;25.10;56.00
7307;DHT22;3694;48.732;9.248;2022-07-06T12:10:34;25.20;56.20
7307;DHT22;3694;48.732;9.248;2022-07-06T12:13:04;25.70;56.60
7307;DHT22;3694;48.732;9.248;2022-07-06T12:15:30;26.10;57.60
7307;DHT22;3694;48.732;9.248;2022-07-06T12:17:55;26.10;56.20
7307;DHT22;3694;48.732;9.248;2022-07-06T12:20:21;26.20;52.70
7307;DHT22;3694;48.732;9.248;2022-07-06T12:22:46;25.90;56.90
7307;DHT22;3694;48.732;9.248;2022-07-06T12:25:32;25.60;57.80
7307;DHT22;3694;48.732;9.248;2022-07-06T12:27:57;25.70;54.10
7307;DHT22;3694;48.732;9.248;2022-07-06T12:30:24;26.20;53.50
7307;DHT22;3694;48.732;9.248;2022-07-06T12:33:15;25.90;54.60
7307;DHT22;3694;48.732;9.248;2022-07-06T12:35:42;25.30;52.90
7307;DHT22;3694;48.732;9.248;2022-07-06T12:38:08;24.90;53.50
7307;DHT22;3694;48.732;9.248;2022-07-06T12:40:36;25.00;54.90
7307;DHT22;3694;48.732;9.248;2022-07-06T12:43:03;24.80;56.10
7307;DHT22;3694;48.732;9.248;2022-07-06T12:45:30;24.30;55.10
7307;DHT22;3694;48.732;9.248;2022-07-06T12:48:02;24.00;56.90
7307;DHT22;3694;48.732;9.248;2022-07-06T12:50:34;24.30;57.30
7307;DHT22;3694;48.732;9.248;2022-07-06T12:53:00;24.30;54.90
7307;DHT22;3694;48.732;9.248;2022-07-06T12:55:28;24.50;56.20
7307;DHT22;3694;48.732;9.248;2022-07-06T12:57:55;24.70;54.90
7307;DHT22;3694;48.732;9.248;2022-07-06T13:00:21;24.70;54.40
7307;DHT22;3694;48.732;9.248;2022-07-06T13:02:52;24.20;57.10
7307;DHT22;3694;48.732;9.248;2022-07-06T13:05:26;24.00;57.20
7307;DHT22;3694;48.732;9.248;2022-07-06T13:07:57;24.00;57.00
7307;DHT22;3694;48.732;9.248;2022-07-06T13:10:24;24.20;57.30
7307;DHT22;3694;48.732;9.248;2022-07-06T13:12:50;24.40;56.30
7307;DHT22;3694;48.732;9.248;2022-07-06T13:15:16;24.70;55.10
7307;DHT22;3694;48.732;9.248;2022-07-06T13:17:42;25.20;55.80
7307;DHT22;3694;48.732;9.248;2022-07-06T13:20:11;24.90;53.80
7307;DHT22;3694;48.732;9.248;2022-07-06T13:22:38;24.90;54.40
7307;DHT22;3694;48.732;9.248;2022-07-06T13:25:04;25.20;55.40
7307;DHT22;3694;48.732;9.248;2022-07-06T13:27:30;25.30;53.80
7307;DHT22;3694;48.732;9.248;2022-07-06T13:29:55;25.30;54.90
7307;DHT22;3694;48.732;9.248;2022-07-06T13:32:21;25.40;53.70
7307;DHT22;3694;48.732;9.248;2022-07-06T13:34:47;25.70;54.00
7307;DHT22;3694;48.732;9.248;2022-07-06T13:37:13;25.70;53.40
7307;DHT22;3694;48.732;9.248;2022-07-06T13:39:38;25.80;54.40
7307;DHT22;3694;48.732;9.248;2022-07-06T13:42:04;26.10;53.80
7307;DHT22;3694;48.732;9.248;2022-07-06T13:44:30;26.00;54.80
7307;DHT22;3694;48.732;9.248;2022-07-06T13:46:55;25.50;54.20
7307;DHT22;3694;48.732;9.248;2022-07-06T13:49:21;25.10;55.20
7307;DHT22;3694;48.732;9.248;2022-07-06T13:51:47;24.80;53.60
7307;DHT22;3694;48.732;9.248;2022-07-06T13:54:12;24.20;53.30
7307;DHT22;3694;48.732;9.248;2022-07-06T13:56:39;24.00;56.90
7307;DHT22;3694;48.732;9.248;2022-07-06T13:59:05;24.30;56.90
7307;DHT22;3694;48.732;9.248;2022-07-06T14:01:31;24.80;56.00
7307;DHT22;3694;48.732;9.248;2022-07-06T14:03:57;25.00;54.50
7307;DHT22;3694;48.732;9.248;2022-07-06T14:06:22;25.20;52.70
7307;DHT22;3694;48.732;9.248;2022-07-06T14:08:48;25.20;52.80
7307;DHT22;3694;48.732;9.248;2022-07-06T14:11:14;25.00;54.40
7307;DHT22;3694;48.732;9.248;2022-07-06T14:13:39;24.90;54.70
7307;DHT22;3694;48.732;9.248;2022-07-06T14:16:05;24.90;53.70
7307;DHT22;3694;48.732;9.248;2022-07-06T14:18:31;25.30;53.00
7307;DHT22;3694;48.732;9.248;2022-07-06T14:20:56;25.50;53.10
7307;DHT22;3694;48.732;9.248;2022-07-06T14:23:23;25.70;51.20
7307;DHT22;3694;48.732;9.248;2022-07-06T14:25:49;25.30;52.50
7307;DHT22;3694;48.732;9.248;2022-07-06T14:28:15;25.10;52.90
7307;DHT22;3694;48.732;9.248;2022-07-06T14:30:42;25.20;52.20
7307;DHT22;3694;48.732;9.248;2022-07-06T14:33:10;25.30;53.60
7307;DHT22;3694;48.732;9.248;2022-07-06T14:35:46;24.90;54.10
7307;DHT22;3694;48.732;9.248;2022-07-06T14:38:13;24.60;54.50
7307;DHT22;3694;48.732;9.248;2022-07-06T14:40:39;23.80;53.60
7307;DHT22;3694;48.732;9.248;2022-07-06T14:43:05;24.10;54.50
7307;DHT22;3694;48.732;9.248;2022-07-06T14:45:30;24.30;53.10
7307;DHT22;3694;48.732;9.248;2022-07-06T14:47:56;24.40;53.90
7307;DHT22;3694;48.732;9.248;2022-07-06T14:50:22;24.10;52.90
7307;DHT22;3694;48.732;9.248;2022-07-06T14:52:52;24.00;55.00
7307;DHT22;3694;48.732;9.248;2022-07-06T14:55:18;24.30;55.20
7307;DHT22;3694;48.732;9.248;2022-07-06T14:57:43;24.60;52.90
7307;DHT22;3694;48.732;9.248;2022-07-06T15:00:10;24.90;54.40
7307;DHT22;3694;48.732;9.248;2022-07-06T15:02:35;24.70;53.00
7307;DHT22;3694;48.732;9.248;2022-07-06T15:05:01;24.60;54.90
7307;DHT22;3694;48.732;9.248;2022-07-06T15:07:27;25.00;53.50
7307;DHT22;3694;48.732;9.248;2022-07-06T15:09:53;25.20;52.40
7307;DHT22;3694;48.732;9.248;2022-07-06T15:12:18;25.40;52.20
7307;DHT22;3694;48.732;9.248;2022-07-06T15:14:44;25.40;52.20
7307;DHT22;3694;48.732;9.248;2022-07-06T15:17:09;25.40;53.80
7307;DHT22;3694;48.732;9.248;2022-07-06T15:19:35;25.20;51.10
7307;DHT22;3694;48.732;9.248;2022-07-06T15:22:00;24.80;51.90
7307;DHT22;3694;48.732;9.248;2022-07-06T15:24:26;24.40;52.70
7307;DHT22;3694;48.732;9.248;2022-07-06T15:26:52;24.30;52.00
7307;DHT22;3694;48.732;9.248;2022-07-06T15:29:17;24.20;51.70
7307;DHT22;3694;48.732;9.248;2022-07-06T15:31:43;24.20;53.00
7307;DHT22;3694;48.732;9.248;2022-07-06T15:34:09;24.10;52.80
7307;DHT22;3694;48.732;9.248;2022-07-06T15:36:35;23.80;52.40
7307;DHT22;3694;48.732;9.248;2022-07-06T15:39:00;23.40;52.80
7307;DHT22;3694;48.732;9.248;2022-07-06T15:41:26;23.20;52.40
7307;DHT22;3694;48.732;9.248;2022-07-06T15:43:51;22.40;52.20
7307;DHT22;3694;48.732;9.248;2022-07-06T15:46:17;22.20;52.90
7307;DHT22;3694;48.732;9.248;2022-07-06T15:48:43;22.30;54.20
7307;DHT22;3694;48.732;9.248;2022-07-06T15:51:09;22.50;52.30
7307;DHT22;3694;48.732;9.248;2022-07-06T15:53:34;22.40;53.60
7307;DHT22;3694;48.732;9.248;2022-07-06T15:56:00;22.30;53.00
7307;DHT22;3694;48.732;9.248;2022-07-06T15:58:25;22.40;52.70
7307;DHT22;3694;48.732;9.248;2022-07-06T16:00:51;22.40;52.00
7307;DHT22;3694;48.732;9.248;2022-07-06T16:03:17;22.30;52.40
7307;DHT22;3694;48.732;9.248;2022-07-06T16:05:43;22.30;51.90
7307;DHT22;3694;48.732;9.248;2022-07-06T16:08:09;22.20;52.30
7307;DHT22;3694;48.732;9.248;2022-07-06T16:10:34;22.30;53.30
7307;DHT22;3694;48.732;9.248;2022-07-06T16:13:00;22.20;52.60
7307;DHT22;3694;48.732;9.248;2022-07-06T16:15:25;22.30;54.20
7307;DHT22;3694;48.732;9.248;2022-07-06T16:17:51;22.40;53.60
7307;DHT22;3694;48.732;9.248;2022-07-06T16:20:18;22.30;53.20
7307;DHT22;3694;48.732;9.248;2022-07-06T16:22:44;22.10;53.80
7307;DHT22;3694;48.732;9.248;2022-07-06T16:25:10;22.10;53.10
7307;DHT22;3694;48.732;9.248;2022-07-06T16:27:36;21.90;52.00
7307;DHT22;3694;48.732;9.248;2022-07-06T16:30:07;22.00;52.80
7307;DHT22;3694;48.732;9.248;2022-07-06T16:32:33;22.00;52.80
7307;DHT22;3694;48.732;9.248;2022-07-06T16:34:59;22.10;51.70
7307;DHT22;3694;48.732;9.248;2022-07-06T16:37:25;22.10;51.40
7307;DHT22;3694;48.732;9.248;2022-07-06T16:39:51;22.20;53.30
7307;DHT22;3694;48.732;9.248;2022-07-06T16:42:16;22.20;51.30
7307;DHT22;3694;48.732;9.248;2022-07-06T16:44:46;22.20;51.70
7307;DHT22;3694;48.732;9.248;2022-07-06T16:47:12;22.20;51.80
7307;DHT22;3694;48.732;9.248;2022-07-06T16:49:39;22.10;51.70
7307;DHT22;3694;48.732;9.248;2022-07-06T16:52:05;21.60;51.60
7307;DHT22;3694;48.732;9.248;2022-07-06T16:54:30;21.60;52.10
7307;DHT22;3694;48.732;9.248;2022-07-06T16:56:56;21.50;53.40
7307;DHT22;3694;48.732;9.248;2022-07-06T16:59:22;21.40;52.70
7307;DHT22;3694;48.732;9.248;2022-07-06T17:01:47;21.30;51.40
7307;DHT22;3694;48.732;9.248;2022-07-06T17:04:13;21.20;51.60
7307;DHT22;3694;48.732;9.248;2022-07-06T17:06:38;21.10;52.20
7307;DHT22;3694;48.732;9.248;2022-07-06T17:09:04;21.10;51.90
7307;DHT22;3694;48.732;9.248;2022-07-06T17:11:29;20.90;51.70
7307;DHT22;3694;48.732;9.248;2022-07-06T17:13:55;20.80;52.20
7307;DHT22;3694;48.732;9.248;2022-07-06T17:16:21;20.60;53.30
7307;DHT22;3694;48.732;9.248;2022-07-06T17:18:47;20.50;50.90
7307;DHT22;3694;48.732;9.248;2022-07-06T17:21:12;20.50;52.00
7307;DHT22;3694;48.732;9.248;2022-07-06T17:23:38;20.50;52.40
7307;DHT22;3694;48.732;9.248;2022-07-06T17:26:04;20.40;51.40
7307;DHT22;3694;48.732;9.248;2022-07-06T17:28:29;20.60;50.60
7307;DHT22;3694;48.732;9.248;2022-07-06T17:30:55;20.50;50.20
7307;DHT22;3694;48.732;9.248;2022-07-06T17:33:21;20.60;50.40
7307;DHT22;3694;48.732;9.248;2022-07-06T17:35:46;20.50;50.40
7307;DHT22;3694;48.732;9.248;2022-07-06T17:38:12;20.50;50.40
7307;DHT22;3694;48.732;9.248;2022-07-06T17:40:38;20.30;50.90
7307;DHT22;3694;48.732;9.248;2022-07-06T17:43:04;20.30;50.20
7307;DHT22;3694;48.732;9.248;2022-07-06T17:45:29;20.20;51.00
7307;DHT22;3694;48.732;9.248;2022-07-06T17:47:55;20.30;50.10
7307;DHT22;3694;48.732;9.248;2022-07-06T17:50:21;20.30;49.60
7307;DHT22;3694;48.732;9.248;2022-07-06T17:52:47;20.40;50.50
7307;DHT22;3694;48.732;9.248;2022-07-06T17:55:12;20.30;50.30
7307;DHT22;3694;48.732;9.248;2022-07-06T17:57:38;20.20;49.80
7307;DHT22;3694;48.732;9.248;2022-07-06T18:00:05;20.00;51.70
7307;DHT22;3694;48.732;9.248;2022-07-06T18:02:33;20.00;50.90
7307;DHT22;3694;48.732;9.248;2022-07-06T18:04:59;19.80;50.80
7307;DHT22;3694;48.732;9.248;2022-07-06T18:07:25;19.80;51.50
7307;DHT22;3694;48.732;9.248;2022-07-06T18:09:50;19.60;50.90
7307;DHT22;3694;48.732;9.248;2022-07-06T18:12:17;19.40;51.00
7307;DHT22;3694;48.732;9.248;2022-07-06T18:14:42;19.30;52.10
7307;DHT22;3694;48.732;9.248;2022-07-06T18:17:08;19.30;51.50
7307;DHT22;3694;48.732;9.248;2022-07-06T18:19:34;19.20;51.40
7307;DHT22;3694;48.732;9.248;2022-07-06T18:21:59;19.10;52.20
7307;DHT22;3694;48.732;9.248;2022-07-06T18:24:25;19.10;50.60
7307;DHT22;3694;48.732;9.248;2022-07-06T18:26:50;19.20;50.20
7307;DHT22;3694;48.732;9.248;2022-07-06T18:29:16;19.20;50.60
7307;DHT22;3694;48.732;9.248;2022-07-06T18:31:42;19.20;50.90
7307;DHT22;3694;48.732;9.248;2022-07-06T18:34:07;19.10;50.90
7307;DHT22;3694;48.732;9.248;2022-07-06T18:36:33;19.10;50.40
7307;DHT22;3694;48.732;9.248;2022-07-06T18:39:00;18.90;50.00
7307;DHT22;3694;48.732;9.248;2022-07-06T18:41:26;18.90;50.40
7307;DHT22;3694;48.732;9.248;2022-07-06T18:43:52;18.80;50.50
7307;DHT22;3694;48.732;9.248;2022-07-06T18:46:17;18.80;51.00
7307;DHT22;3694;48.732;9.248;2022-07-06T18:48:43;18.80;50.70
7307;DHT22;3694;48.732;9.248;2022-07-06T18:51:09;18.80;50.60
7307;DHT22;3694;48.732;9.248;2022-07-06T18:53:35;18.80;49.80
7307;DHT22;3694;48.732;9.248;2022-07-06T18:56:00;18.80;49.60
7307;DHT22;3694;48.732;9.248;2022-07-06T18:58:26;18.70;49.90
7307;DHT22;3694;48.732;9.248;2022-07-06T19:00:51;18.60;50.00
7307;DHT22;3694;48.732;9.248;2022-07-06T19:03:17;18.50;49.90
7307;DHT22;3694;48.732;9.248;2022-07-06T19:05:42;18.40;50.50
7307;DHT22;3694;48.732;9.248;2022-07-06T19:08:09;18.30;50.50
7307;DHT22;3694;48.732;9.248;2022-07-06T19:10:35;18.30;50.70
7307;DHT22;3694;48.732;9.248;2022-07-06T19:13:00;18.20;50.60
7307;DHT22;3694;48.732;9.248;2022-07-06T19:15:26;18.10;50.20
7307;DHT22;3694;48.732;9.248;2022-07-06T19:17:52;18.20;51.20
7307;DHT22;3694;48.732;9.248;2022-07-06T19:20:19;17.90;51.70
7307;DHT22;3694;48.732;9.248;2022-07-06T19:22:45;17.80;51.60
7307;DHT22;3694;48.732;9.248;2022-07-06T19:25:11;17.60;51.50
7307;DHT22;3694;48.732;9.248;2022-07-06T19:27:37;17.40;51.00
7307;DHT22;3694;48.732;9.248;2022-07-06T19:30:04;17.20;51.70
7307;DHT22;3694;48.732;9.248;2022-07-06T19:32:30;17.10;51.20
7307;DHT22;3694;48.732;9.248;2022-07-06T19:34:56;17.00;51.60
7307;DHT22;3694;48.732;9.248;2022-07-06T19:37:22;16.90;51.90
7307;DHT22;3694;48.732;9.248;2022-07-06T19:39:47;16.80;52.60
7307;DHT22;3694;48.732;9.248;2022-07-06T19:42:13;16.70;52.60
7307;DHT22;3694;48.732;9.248;2022-07-06T19:44:38;16.50;52.30
7307;DHT22;3694;48.732;9.248;2022-07-06T19:47:04;16.80;52.70
7307;DHT22;3694;48.732;9.248;2022-07-06T19:49:29;16.80;53.30
7307;DHT22;3694;48.732;9.248;2022-07-06T19:51:55;16.70;52.80
7307;DHT22;3694;48.732;9.248;2022-07-06T19:54:20;16.60;53.70
7307;DHT22;3694;48.732;9.248;2022-07-06T19:56:46;16.50;53.20
7307;DHT22;3694;48.732;9.248;2022-07-06T19:59:12;16.50;53.30
7307;DHT22;3694;48.732;9.248;2022-07-06T20:01:37;16.50;53.50
7307;DHT22;3694;48.732;9.248;2022-07-06T20:04:03;16.40;53.50
7307;DHT22;3694;48.732;9.248;2022-07-06T20:06:28;16.40;53.20
7307;DHT22;3694;48.732;9.248;2022-07-06T20:08:54;16.40;53.30
7307;DHT22;3694;48.732;9.248;2022-07-06T20:11:20;16.30;53.50
7307;DHT22;3694;48.732;9.248;2022-07-06T20:13:46;16.30;53.50
7307;DHT22;3694;48.732;9.248;2022-07-06T20:16:11;16.20;53.60
7307;DHT22;3694;48.732;9.248;2022-07-06T20:18:38;16.10;53.90
7307;DHT22;3694;48.732;9.248;2022-07-06T20:21:04;15.90;54.20
7307;DHT22;3694;48.732;9.248;2022-07-06T20:23:29;15.80;54.50
7307;DHT22;3694;48.732;9.248;2022-07-06T20:25:55;15.70;54.60
7307;DHT22;3694;48.732;9.248;2022-07-06T20:28:20;15.70;54.60
7307;DHT22;3694;48.732;9.248;2022-07-06T20:30:46;15.70;54.50
7307;DHT22;3694;48.732;9.248;2022-07-06T20:33:12;15.70;54.30
7307;DHT22;3694;48.732;9.248;2022-07-06T20:35:38;15.60;54.60
7307;DHT22;3694;48.732;9.248;2022-07-06T20:38:04;15.50;55.00
7307;DHT22;3694;48.732;9.248;2022-07-06T20:40:29;15.30;55.00
7307;DHT22;3694;48.732;9.248;2022-07-06T20:42:56;15.20;55.40
7307;DHT22;3694;48.732;9.248;2022-07-06T20:45:21;15.20;55.40
7307;DHT22;3694;48.732;9.248;2022-07-06T20:47:47;15.10;55.50
7307;DHT22;3694;48.732;9.248;2022-07-06T20:50:12;15.00;55.70
7307;DHT22;3694;48.732;9.248;2022-07-06T20:52:38;14.80;56.00
7307;DHT22;3694;48.732;9.248;2022-07-06T20:55:04;14.90;56.10
7307;DHT22;3694;48.732;9.248;2022-07-06T20:57:30;14.70;56.30
7307;DHT22;3694;48.732;9.248;2022-07-06T20:59:56;14.70;56.30
7307;DHT22;3694;48.732;9.248;2022-07-06T21:02:22;14.60;56.60
7307;DHT22;3694;48.732;9.248;2022-07-06T21:04:48;14.50;56.70
7307;DHT22;3694;48.732;9.248;2022-07-06T21:07:14;14.50;57.00
7307;DHT22;3694;48.732;9.248;2022-07-06T21:09:39;14.40;57.20
7307;DHT22;3694;48.732;9.248;2022-07-06T21:12:05;14.30;57.20
7307;DHT22;3694;48.732;9.248;2022-07-06T21:14:31;14.30;58.00
7307;DHT22;3694;48.732;9.248;2022-07-06T21:16:57;14.20;57.80
7307;DHT22;3694;48.732;9.248;2022-07-06T21:19:22;14.20;58.30
7307;DHT22;3694;48.732;9.248;2022-07-06T21:21:48;14.10;58.20
7307;DHT22;3694;48.732;9.248;2022-07-06T21:24:13;14.10;58.40
7307;DHT22;3694;48.732;9.248;2022-07-06T21:26:39;14.20;58.40
7307;DHT22;3694;48.732;9.248;2022-07-06T21:29:04;14.10;58.50
7307;DHT22;3694;48.732;9.248;2022-07-06T21:31:30;14.10;58.50
7307;DHT22;3694;48.732;9.248;2022-07-06T21:33:55;14.00;58.70
7307;DHT22;3694;48.732;9.248;2022-07-06T21:36:21;13.90;59.40
7307;DHT22;3694;48.732;9.248;2022-07-06T21:38:46;13.90;59.40
7307;DHT22;3694;48.732;9.248;2022-07-06T21:41:12;13.90;59.30
7307;DHT22;3694;48.732;9.248;2022-07-06T21:43:37;13.90;59.70
7307;DHT22;3694;48.732;9.248;2022-07-06T21:46:03;13.90;60.00
7307;DHT22;3694;48.732;9.248;2022-07-06T21:48:28;13.90;59.60
7307;DHT22;3694;48.732;9.248;2022-07-06T21:50:54;13.80;60.30
7307;DHT22;3694;48.732;9.248;2022-07-06T21:53:19;13.90;60.30